createdAt,value
2022-10-17T00:00:53.866Z,13.28
2022-10-17T00:03:24.087Z,13.21
2022-10-17T00:05:58.455Z,13.23
2022-10-17T00:08:27.258Z,13.29
2022-10-17T00:10:59.067Z,13.32
2022-10-17T00:13:27.704Z,13.37
2022-10-17T00:15:56.569Z,13.20
2022-10-17T00:18:29.301Z,13.24
2022-10-17T00:20:59.523Z,13.17
2022-10-17T00:23:30.372Z,13.09
2022-10-17T00:26:00.979Z,13.18
2022-10-17T00:28:29.904Z,13.13
2022-10-17T00:31:03.275Z,13.21
2022-10-17T00:33:33.872Z,13.21
2022-10-17T00:36:08.610Z,13.21
2022-10-17T00:38:37.261Z,13.30
2022-10-17T00:41:07.585Z,13.13
2022-10-17T00:43:53.707Z,13.05
2022-10-17T00:46:31.395Z,13.06
2022-10-17T00:49:02.697Z,13.01
2022-10-17T00:51:33.303Z,12.96
2022-10-17T00:54:02.522Z,12.89
2022-10-17T00:56:32.030Z,12.93
2022-10-17T00:59:00.679Z,12.87
2022-10-17T01:01:34.169Z,12.85
2022-10-17T01:04:04.584Z,12.88
2022-10-17T01:06:37.490Z,12.91
2022-10-17T01:09:06.134Z,12.91
2022-10-17T01:11:37.799Z,12.81
2022-10-17T01:14:07.376Z,12.76
2022-10-17T01:16:44.243Z,12.73
2022-10-17T01:19:21.666Z,12.79
2022-10-17T01:21:52.291Z,12.73
2022-10-17T01:24:29.931Z,12.72
2022-10-17T01:27:08.755Z,12.74
2022-10-17T01:29:43.498Z,12.69
2022-10-17T01:32:16.668Z,12.70
2022-10-17T01:34:48.185Z,12.54
2022-10-17T01:37:18.335Z,12.59
2022-10-17T01:39:53.199Z,12.58
2022-10-17T01:42:23.548Z,12.58
2022-10-17T01:44:55.579Z,12.75
2022-10-17T01:47:26.810Z,12.71
2022-10-17T01:50:02.367Z,12.67
2022-10-17T01:52:37.280Z,12.59
2022-10-17T01:55:06.938Z,12.53
2022-10-17T01:57:37.159Z,12.59
2022-10-17T02:00:06.882Z,12.56
2022-10-17T02:02:42.535Z,12.52
2022-10-17T02:05:11.731Z,12.55
2022-10-17T02:07:47.898Z,12.50
2022-10-17T02:10:25.380Z,12.38
2022-10-17T02:12:54.782Z,12.44
2022-10-17T02:15:37.333Z,12.39
2022-10-17T02:18:11.559Z,12.26
2022-10-17T02:20:48.838Z,12.41
2022-10-17T02:25:55.568Z,12.33
2022-10-17T02:28:25.088Z,12.18
2022-10-17T02:30:59.529Z,12.12
2022-10-17T02:33:38.317Z,12.15
2022-10-17T02:36:08.744Z,12.23
2022-10-17T02:38:39.190Z,12.16
2022-10-17T02:41:08.135Z,12.12
2022-10-17T02:43:40.650Z,12.23
2022-10-17T02:46:09.568Z,12.23
2022-10-17T02:48:42.564Z,12.20
2022-10-17T02:51:13.965Z,12.16
2022-10-17T02:53:44.657Z,12.19
2022-10-17T02:56:15.843Z,12.20
2022-10-17T02:58:44.403Z,12.29
2022-10-17T03:01:16.792Z,12.21
2022-10-17T03:03:49.653Z,12.21
2022-10-17T03:06:24.501Z,12.06
2022-10-17T03:08:52.773Z,12.06
2022-10-17T03:11:23.051Z,11.99
2022-10-17T03:13:52.257Z,12.06
2022-10-17T03:16:27.552Z,11.97
2022-10-17T03:18:58.534Z,12.00
2022-10-17T03:21:28.360Z,12.00
2022-10-17T03:23:57.029Z,11.92
2022-10-17T03:26:30.475Z,11.94
2022-10-17T03:28:59.874Z,12.05
2022-10-17T03:31:31.431Z,12.11
2022-10-17T03:36:58.183Z,12.05
2022-10-17T03:39:28.237Z,12.08
2022-10-17T03:41:57.012Z,12.03
2022-10-17T03:44:25.985Z,12.17
2022-10-17T03:46:58.015Z,12.11
2022-10-17T03:49:28.723Z,12.10
2022-10-17T03:51:57.628Z,12.10
2022-10-17T03:54:26.364Z,12.12
2022-10-17T03:59:27.794Z,12.15
2022-10-17T04:02:04.836Z,12.11
2022-10-17T04:04:35.059Z,12.12
2022-10-17T04:07:07.988Z,11.99
2022-10-17T04:09:37.538Z,12.00
2022-10-17T04:12:06.852Z,12.06
2022-10-17T04:14:35.471Z,12.05
2022-10-17T04:17:07.897Z,12.00
2022-10-17T04:19:37.837Z,11.97
2022-10-17T04:22:08.827Z,12.04
2022-10-17T04:24:38.359Z,11.92
2022-10-17T04:27:08.618Z,11.98
2022-10-17T04:29:37.946Z,12.07
2022-10-17T04:32:12.701Z,12.02
2022-10-17T04:34:42.845Z,12.01
2022-10-17T04:37:13.686Z,12.01
2022-10-17T04:39:42.081Z,12.00
2022-10-17T04:42:11.589Z,11.99
2022-10-17T04:44:41.956Z,11.92
2022-10-17T04:47:12.043Z,12.02
2022-10-17T04:49:45.505Z,12.04
2022-10-17T04:52:17.496Z,11.94
2022-10-17T04:54:46.104Z,12.03
2022-10-17T04:57:17.518Z,11.93
2022-10-17T04:59:48.282Z,11.93
2022-10-17T05:02:20.716Z,11.98
2022-10-17T05:04:51.685Z,11.97
2022-10-17T05:07:22.322Z,12.09
2022-10-17T05:09:52.652Z,12.04
2022-10-17T05:12:21.503Z,12.08
2022-10-17T05:14:49.813Z,12.04
2022-10-17T05:17:18.962Z,12.12
2022-10-17T05:19:52.720Z,12.07
2022-10-17T05:22:21.883Z,12.01
2022-10-17T05:24:53.347Z,11.93
2022-10-17T05:27:28.548Z,12.00
2022-10-17T05:29:56.978Z,11.97
2022-10-17T05:32:27.746Z,11.99
2022-10-17T05:34:58.515Z,11.93
2022-10-17T05:37:28.095Z,12.08
2022-10-17T05:39:56.844Z,12.09
2022-10-17T05:42:28.435Z,12.14
2022-10-17T05:44:58.416Z,12.10
2022-10-17T05:47:33.499Z,12.27
2022-10-17T05:50:04.013Z,12.22
2022-10-17T05:52:36.891Z,12.12
2022-10-17T05:55:06.726Z,12.28
2022-10-17T05:57:37.187Z,12.26
2022-10-17T06:00:07.260Z,12.51
2022-10-17T06:02:42.759Z,12.30
2022-10-17T06:05:15.927Z,12.26
2022-10-17T06:07:46.080Z,12.47
2022-10-17T06:10:20.104Z,12.62
2022-10-17T06:12:48.427Z,12.53
2022-10-17T06:15:25.523Z,12.69
2022-10-17T06:17:57.493Z,12.76
2022-10-17T06:20:31.828Z,12.66
2022-10-17T06:23:05.421Z,12.77
2022-10-17T06:25:35.155Z,12.56
2022-10-17T06:28:06.728Z,12.81
2022-10-17T06:30:35.731Z,12.91
2022-10-17T06:33:06.004Z,13.12
2022-10-17T06:35:36.196Z,13.01
2022-10-17T06:38:08.443Z,13.03
2022-10-17T06:40:37.959Z,13.19
2022-10-17T06:43:12.084Z,13.32
2022-10-17T06:45:43.749Z,13.35
2022-10-17T06:48:20.876Z,13.60
2022-10-17T06:50:55.305Z,13.50
2022-10-17T06:53:25.038Z,13.75
2022-10-17T06:56:01.600Z,13.76
2022-10-17T06:58:33.196Z,13.77
2022-10-17T07:03:48.409Z,13.90
2022-10-17T07:06:22.203Z,13.91
2022-10-17T07:08:50.584Z,13.98
2022-10-17T07:11:22.362Z,13.97
2022-10-17T07:13:50.891Z,14.07
2022-10-17T07:16:24.458Z,14.14
2022-10-17T07:18:54.298Z,14.34
2022-10-17T07:21:28.599Z,14.36
2022-10-17T07:23:57.200Z,14.39
2022-10-17T07:26:26.477Z,14.70
2022-10-17T07:28:56.417Z,14.54
2022-10-17T07:31:31.914Z,14.39
2022-10-17T07:34:00.666Z,14.61
2022-10-17T07:36:31.049Z,15.00
2022-10-17T07:38:59.641Z,14.86
2022-10-17T07:41:31.965Z,14.79
2022-10-17T07:44:00.715Z,15.05
2022-10-17T07:46:34.785Z,14.88
2022-10-17T07:49:03.106Z,14.86
2022-10-17T07:51:36.448Z,15.04
2022-10-17T07:54:05.907Z,14.97
2022-10-17T07:56:37.638Z,15.20
2022-10-17T07:59:20.186Z,15.51
2022-10-17T08:01:49.067Z,15.51
2022-10-17T08:04:23.933Z,15.40
2022-10-17T08:07:18.272Z,15.45
2022-10-17T08:09:47.967Z,15.71
2022-10-17T08:12:19.035Z,15.47
2022-10-17T08:14:50.620Z,15.53
2022-10-17T08:17:21.702Z,15.79
2022-10-17T08:20:11.162Z,15.68
2022-10-17T08:22:41.079Z,15.98
2022-10-17T08:25:14.181Z,16.08
2022-10-17T08:27:43.075Z,16.19
2022-10-17T08:30:13.712Z,16.26
2022-10-17T08:32:42.061Z,16.34
2022-10-17T08:35:15.118Z,16.39
2022-10-17T08:37:44.853Z,16.34
2022-10-17T08:40:16.624Z,16.34
2022-10-17T08:42:57.034Z,16.48
2022-10-17T08:45:32.121Z,16.69
2022-10-17T08:48:03.567Z,16.52
2022-10-17T08:50:42.225Z,16.71
2022-10-17T08:53:13.447Z,16.61
2022-10-17T08:55:45.558Z,16.74
2022-10-17T09:00:47.841Z,16.82
2022-10-17T09:03:27.587Z,16.86
2022-10-17T09:05:57.855Z,16.95
2022-10-17T09:08:34.432Z,16.99
2022-10-17T09:11:04.923Z,17.18
2022-10-17T09:13:45.008Z,17.21
2022-10-17T09:16:25.899Z,17.09
2022-10-17T09:18:57.987Z,17.48
2022-10-17T09:21:27.943Z,17.42
2022-10-17T09:24:15.399Z,17.37
2022-10-17T09:26:47.810Z,17.25
2022-10-17T09:29:23.272Z,17.67
2022-10-17T09:32:02.678Z,17.54
2022-10-17T09:34:31.275Z,17.68
2022-10-17T09:37:04.272Z,17.82
2022-10-17T09:39:34.795Z,17.67
2022-10-17T09:42:06.614Z,17.79
2022-10-17T09:44:36.019Z,17.68
2022-10-17T09:47:30.297Z,18.13
2022-10-17T09:49:59.166Z,18.13
2022-10-17T09:52:33.683Z,18.31
2022-10-17T09:55:11.039Z,18.19
2022-10-17T09:57:55.273Z,18.42
2022-10-17T10:00:25.029Z,18.40
2022-10-17T10:03:10.136Z,18.49
2022-10-17T10:05:39.314Z,18.67
2022-10-17T10:08:22.871Z,18.55
2022-10-17T10:11:04.941Z,18.77
2022-10-17T10:13:34.792Z,19.01
2022-10-17T10:16:15.100Z,18.85
2022-10-17T10:18:50.960Z,18.86
2022-10-17T10:21:28.432Z,18.98
2022-10-17T10:26:44.431Z,19.17
2022-10-17T10:29:22.618Z,19.09
2022-10-17T10:32:01.585Z,19.15
2022-10-17T10:34:39.711Z,19.13
2022-10-17T10:37:24.365Z,19.33
2022-10-17T10:39:53.548Z,19.52
2022-10-17T10:42:24.719Z,19.66
2022-10-17T10:44:53.702Z,19.75
2022-10-17T10:47:24.597Z,19.73
2022-10-17T10:49:54.501Z,19.78
2022-10-17T10:52:31.108Z,19.65
2022-10-17T10:55:09.117Z,19.78
2022-10-17T10:57:39.423Z,19.88
2022-10-17T11:00:12.729Z,19.78
2022-10-17T11:02:43.406Z,19.84
2022-10-17T11:05:22.538Z,19.98
2022-10-17T11:07:53.600Z,19.96
2022-10-17T11:10:23.454Z,19.99
2022-10-17T11:12:55.591Z,20.05
2022-10-17T11:15:25.845Z,20.07
2022-10-17T11:17:58.535Z,20.22
2022-10-17T11:20:38.926Z,20.12
2022-10-17T11:23:20.170Z,20.42
2022-10-17T11:25:50.107Z,20.45
2022-10-17T11:28:21.650Z,20.42
2022-10-17T11:31:00.019Z,20.59
2022-10-17T11:33:31.725Z,20.50
2022-10-17T11:36:04.945Z,20.60
2022-10-17T11:38:37.917Z,20.59
2022-10-17T11:41:06.939Z,20.78
2022-10-17T11:43:37.688Z,20.72
2022-10-17T11:46:08.112Z,20.79
2022-10-17T11:48:39.024Z,20.96
2022-10-17T11:54:00.763Z,21.23
2022-10-17T11:56:42.685Z,21.06
2022-10-17T11:59:20.292Z,21.08
2022-10-17T12:01:58.079Z,21.04
2022-10-17T12:04:46.138Z,20.97
2022-10-17T12:07:19.892Z,21.14
2022-10-17T12:09:53.979Z,21.18
2022-10-17T12:12:35.905Z,21.07
2022-10-17T12:15:29.363Z,21.29
2022-10-17T12:18:02.980Z,21.22
2022-10-17T12:20:33.415Z,21.25
2022-10-17T12:23:03.858Z,21.30
2022-10-17T12:25:34.138Z,21.02
2022-10-17T12:28:14.209Z,21.26
2022-10-17T12:30:51.558Z,21.47
2022-10-17T12:33:23.263Z,21.37
2022-10-17T12:36:00.084Z,21.39
2022-10-17T12:38:30.800Z,21.44
2022-10-17T12:41:01.422Z,21.54
2022-10-17T12:46:38.728Z,21.42
2022-10-17T12:49:24.526Z,21.48
2022-10-17T12:52:37.041Z,21.56
2022-10-17T12:55:16.260Z,21.39
2022-10-17T12:57:50.276Z,21.38
2022-10-17T13:00:20.636Z,21.52
2022-10-17T13:02:50.131Z,21.37
2022-10-17T13:05:28.486Z,21.26
2022-10-17T13:08:03.140Z,21.36
2022-10-17T13:10:32.934Z,21.56
2022-10-17T13:13:06.549Z,21.58
2022-10-17T13:15:34.904Z,21.67
2022-10-17T13:18:07.143Z,21.69
2022-10-17T13:20:39.064Z,21.56
2022-10-17T13:23:26.242Z,21.80
2022-10-17T13:26:12.563Z,21.77
2022-10-17T13:28:41.572Z,21.79
2022-10-17T13:31:17.419Z,21.81
2022-10-17T13:33:58.834Z,21.68
2022-10-17T13:36:34.060Z,21.73
2022-10-17T13:39:12.101Z,21.60
2022-10-17T13:41:44.785Z,21.69
2022-10-17T13:44:17.091Z,21.68
2022-10-17T13:46:48.442Z,21.68
2022-10-17T13:49:26.023Z,21.51
2022-10-17T13:52:05.285Z,21.67
2022-10-17T13:54:36.028Z,21.58
2022-10-17T13:57:07.913Z,21.49
2022-10-17T13:59:39.846Z,21.48
2022-10-17T14:02:12.683Z,21.42
2022-10-17T14:05:11.755Z,21.45
2022-10-17T14:07:58.161Z,21.36
2022-10-17T14:10:25.943Z,21.45
2022-10-17T14:12:55.487Z,21.37
2022-10-17T14:15:25.954Z,21.25
2022-10-17T14:18:06.745Z,21.22
2022-10-17T14:21:19.888Z,21.25
2022-10-17T14:23:36.613Z,21.17
2022-10-17T14:26:08.380Z,21.10
2022-10-17T14:28:50.731Z,21.22
2022-10-17T14:31:28.318Z,21.22
2022-10-17T14:34:01.017Z,20.88
2022-10-17T14:36:33.680Z,20.85
2022-10-17T14:39:03.733Z,20.75
2022-10-17T14:41:42.974Z,20.69
2022-10-17T14:44:18.196Z,20.63
2022-10-17T14:46:50.543Z,20.64
2022-10-17T14:49:25.237Z,20.74
2022-10-17T14:52:27.664Z,20.72
2022-10-17T14:54:58.610Z,20.46
2022-10-17T14:57:29.509Z,20.40
2022-10-17T15:00:00.977Z,20.29
2022-10-17T15:02:36.634Z,20.26
2022-10-17T15:05:09.510Z,20.03
2022-10-17T15:07:41.749Z,20.05
2022-10-17T15:10:29.979Z,20.06
2022-10-17T15:13:26.615Z,19.93
2022-10-17T15:15:57.932Z,19.93
2022-10-17T15:18:26.536Z,19.73
2022-10-17T15:21:04.758Z,19.70
2022-10-17T15:23:43.664Z,19.52
2022-10-17T15:26:34.626Z,19.50
2022-10-17T15:29:05.014Z,19.44
2022-10-17T15:31:34.397Z,19.31
2022-10-17T15:34:07.974Z,19.25
2022-10-17T15:36:37.691Z,19.13
2022-10-17T15:39:07.352Z,19.12
2022-10-17T15:41:40.577Z,19.00
2022-10-17T15:44:10.670Z,18.96
2022-10-17T15:46:38.977Z,18.75
2022-10-17T15:49:11.576Z,18.76
2022-10-17T15:51:40.384Z,18.69
2022-10-17T15:54:09.954Z,18.57
2022-10-17T15:56:41.836Z,18.51
2022-10-17T15:59:14.943Z,18.37
2022-10-17T16:01:44.137Z,18.21
2022-10-17T16:04:16.028Z,18.33
2022-10-17T16:06:44.738Z,18.26
2022-10-17T16:09:20.314Z,18.13
2022-10-17T16:11:50.292Z,18.01
2022-10-17T16:14:26.423Z,17.92
2022-10-17T16:17:03.657Z,17.85
2022-10-17T16:19:32.647Z,17.78
2022-10-17T16:22:04.497Z,17.72
2022-10-17T16:24:34.496Z,17.87
2022-10-17T16:27:04.795Z,17.84
2022-10-17T16:29:41.319Z,17.78
2022-10-17T16:32:33.445Z,17.70
2022-10-17T16:35:02.404Z,17.53
2022-10-17T16:37:36.457Z,17.51
2022-10-17T16:40:07.343Z,17.45
2022-10-17T16:42:40.746Z,17.37
2022-10-17T16:45:10.811Z,17.28
2022-10-17T16:47:39.490Z,17.23
2022-10-17T16:50:15.563Z,17.22
2022-10-17T16:52:45.761Z,17.08
2022-10-17T16:55:19.154Z,17.06
2022-10-17T16:57:51.144Z,17.01
2022-10-17T17:00:20.443Z,16.93
2022-10-17T17:02:52.075Z,16.87
2022-10-17T17:05:30.192Z,16.88
2022-10-17T17:08:03.620Z,16.86
2022-10-17T17:10:32.457Z,16.82
2022-10-17T17:13:05.060Z,16.76
2022-10-17T17:15:33.515Z,16.69
2022-10-17T17:18:07.643Z,16.71
2022-10-17T17:20:36.301Z,16.66
2022-10-17T17:23:05.804Z,16.67
2022-10-17T17:25:35.498Z,16.64
2022-10-17T17:28:12.774Z,16.67
2022-10-17T17:30:46.400Z,16.66
2022-10-17T17:33:23.096Z,16.52
2022-10-17T17:35:58.566Z,16.48
2022-10-17T17:38:31.396Z,16.45
2022-10-17T17:41:00.001Z,16.47
2022-10-17T17:43:35.492Z,16.31
2022-10-17T17:46:04.715Z,16.24
2022-10-17T17:48:34.337Z,16.21
2022-10-17T17:51:04.717Z,16.19
2022-10-17T17:53:38.277Z,16.17
2022-10-17T17:56:08.398Z,16.01
2022-10-17T17:58:39.132Z,16.16
2022-10-17T18:01:12.269Z,16.16
2022-10-17T18:03:47.328Z,16.14
2022-10-17T18:06:24.707Z,16.09
2022-10-17T18:08:54.136Z,16.19
2022-10-17T18:11:24.695Z,16.19
2022-10-17T18:14:06.812Z,16.10
2022-10-17T18:16:36.708Z,16.19
2022-10-17T18:19:09.555Z,16.04
2022-10-17T18:21:39.075Z,15.84
2022-10-17T18:24:11.120Z,15.81
2022-10-17T18:26:53.111Z,15.79
2022-10-17T18:29:23.523Z,15.99
2022-10-17T18:31:55.321Z,15.87
2022-10-17T18:34:27.608Z,16.00
2022-10-17T18:37:03.209Z,15.94
2022-10-17T18:39:39.599Z,15.87
2022-10-17T18:42:09.157Z,15.77
2022-10-17T18:44:45.665Z,15.85
2022-10-17T18:47:18.051Z,15.62
2022-10-17T18:49:48.970Z,15.65
2022-10-17T18:52:24.081Z,15.60
2022-10-17T18:54:54.325Z,15.63
2022-10-17T18:57:30.748Z,15.54
2022-10-17T19:00:04.873Z,15.50
2022-10-17T19:02:35.625Z,15.51
2022-10-17T19:05:14.762Z,15.54
2022-10-17T19:07:50.309Z,15.46
2022-10-17T19:10:19.834Z,15.49
2022-10-17T19:12:49.428Z,15.36
2022-10-17T19:15:22.447Z,15.34
2022-10-17T19:17:59.083Z,15.32
2022-10-17T19:20:29.195Z,15.22
2022-10-17T19:23:01.104Z,15.20
2022-10-17T19:25:34.021Z,15.13
2022-10-17T19:28:03.420Z,15.12
2022-10-17T19:30:37.621Z,15.18
2022-10-17T19:33:06.650Z,15.14
2022-10-17T19:35:41.334Z,15.14
2022-10-17T19:38:10.621Z,15.06
2022-10-17T19:40:41.589Z,15.11
2022-10-17T19:43:10.347Z,15.09
2022-10-17T19:45:40.253Z,14.97
2022-10-17T19:48:09.151Z,14.85
2022-10-17T19:50:44.653Z,14.94
2022-10-17T19:53:13.049Z,14.89
2022-10-17T19:55:44.887Z,14.81
2022-10-17T20:00:48.829Z,14.71
2022-10-17T20:03:20.569Z,14.68
2022-10-17T20:05:50.389Z,14.47
2022-10-17T20:08:19.471Z,14.61
2022-10-17T20:10:49.186Z,14.67
2022-10-17T20:13:17.511Z,14.61
2022-10-17T20:15:56.409Z,14.50
2022-10-17T20:18:32.820Z,14.45
2022-10-17T20:21:03.906Z,14.30
2022-10-17T20:23:34.017Z,14.29
2022-10-17T20:26:08.637Z,14.29
2022-10-17T20:28:48.537Z,14.31
2022-10-17T20:31:27.919Z,14.36
2022-10-17T20:33:58.379Z,14.19
2022-10-17T20:36:27.262Z,14.24
2022-10-17T20:38:56.739Z,14.14
2022-10-17T20:41:27.671Z,14.14
2022-10-17T20:44:01.434Z,14.13
2022-10-17T20:46:44.720Z,14.07
2022-10-17T20:49:14.729Z,14.07
2022-10-17T20:51:46.741Z,14.10
2022-10-17T20:54:15.043Z,14.04
2022-10-17T20:56:45.432Z,13.97
2022-10-17T20:59:17.041Z,13.94
2022-10-17T21:01:50.468Z,13.98
2022-10-17T21:04:45.852Z,14.01
2022-10-17T21:07:17.495Z,13.98
2022-10-17T21:09:49.473Z,14.06
2022-10-17T21:12:30.926Z,14.00
2022-10-17T21:15:10.024Z,13.88
2022-10-17T21:17:46.735Z,13.87
2022-10-17T21:20:16.422Z,13.86
2022-10-17T21:22:48.136Z,13.85
2022-10-17T21:25:17.933Z,13.85
2022-10-17T21:27:49.250Z,13.79
2022-10-17T21:30:21.751Z,13.83
2022-10-17T21:32:56.089Z,13.71
2022-10-17T21:35:27.542Z,13.88
2022-10-17T21:37:56.392Z,13.77
2022-10-17T21:40:27.704Z,13.71
2022-10-17T21:42:57.186Z,13.75
2022-10-17T21:45:28.322Z,13.70
2022-10-17T21:48:12.490Z,13.79
2022-10-17T21:50:42.205Z,13.80
2022-10-17T21:53:13.404Z,13.75
2022-10-17T21:55:41.659Z,13.32
2022-10-17T22:00:44.237Z,13.53
2022-10-17T22:03:17.299Z,13.57
2022-10-17T22:05:46.603Z,13.56
2022-10-17T22:08:15.886Z,13.65
2022-10-17T22:10:44.470Z,13.67
2022-10-17T22:13:14.912Z,13.38
2022-10-17T22:15:44.084Z,13.42
2022-10-17T22:18:21.648Z,13.32
2022-10-17T22:20:51.885Z,13.43
2022-10-17T22:23:22.236Z,13.18
2022-10-17T22:25:56.379Z,13.40
2022-10-17T22:28:27.171Z,13.34
2022-10-17T22:30:55.803Z,13.38
2022-10-17T22:33:32.534Z,13.33
2022-10-17T22:36:05.154Z,13.30
2022-10-17T22:38:33.747Z,13.38
2022-10-17T22:41:08.604Z,13.27
2022-10-17T22:43:37.190Z,13.30
2022-10-17T22:46:08.085Z,13.35
2022-10-17T22:48:36.745Z,13.26
2022-10-17T22:51:09.939Z,13.36
2022-10-17T22:53:38.790Z,13.09
2022-10-17T22:56:13.149Z,13.24
2022-10-17T22:58:41.866Z,13.29
2022-10-17T23:01:11.916Z,13.14
2022-10-17T23:03:40.230Z,13.20
2022-10-17T23:06:14.891Z,13.18
2022-10-17T23:08:44.838Z,13.10
2022-10-17T23:11:14.039Z,13.10
2022-10-17T23:13:42.314Z,12.93
2022-10-17T23:16:11.511Z,12.96
2022-10-17T23:18:47.962Z,13.03
2022-10-17T23:21:19.416Z,12.78
2022-10-17T23:23:49.269Z,12.94
2022-10-17T23:26:18.207Z,13.05
2022-10-17T23:28:46.878Z,13.03
2022-10-17T23:31:21.222Z,13.00
2022-10-17T23:33:50.555Z,13.07
2022-10-17T23:36:21.168Z,13.02
2022-10-17T23:38:53.770Z,13.03
2022-10-17T23:41:34.657Z,12.98
2022-10-17T23:44:06.564Z,13.02
2022-10-17T23:46:35.432Z,12.86
2022-10-17T23:49:07.107Z,12.94
2022-10-17T23:51:35.648Z,12.94
2022-10-17T23:54:13.169Z,12.97
2022-10-17T23:56:41.695Z,13.00
2022-10-17T23:59:10.532Z,12.85
